createdAt,value
2023-06-30T00:01:29.114Z,100986.53
2023-06-30T00:04:31.666Z,100991.94
2023-06-30T00:07:33.663Z,100993.91
2023-06-30T00:10:36.226Z,101002.16
2023-06-30T00:13:37.902Z,100993.38
2023-06-30T00:16:39.453Z,101002.59
2023-06-30T00:19:41.043Z,100999.31
2023-06-30T00:22:42.594Z,101001.31
2023-06-30T00:25:44.457Z,101000.63
2023-06-30T00:28:46.665Z,100988.41
2023-06-30T00:31:48.234Z,100988.69
2023-06-30T00:34:49.841Z,100982.59
2023-06-30T00:37:51.680Z,100989.00
2023-06-30T00:40:53.317Z,100987.41
2023-06-30T00:43:54.982Z,100983.97
2023-06-30T00:47:00.970Z,100987.69
2023-06-30T00:50:03.834Z,100982.44
2023-06-30T00:53:06.234Z,100977.19
2023-06-30T00:56:08.031Z,100978.34
2023-06-30T00:59:09.685Z,100976.66
2023-06-30T01:02:25.556Z,100983.88
2023-06-30T01:05:35.882Z,100974.25
2023-06-30T01:08:42.020Z,100980.59
2023-06-30T01:11:44.690Z,100984.31
2023-06-30T01:14:47.872Z,100986.25
2023-06-30T01:17:54.704Z,100996.31
2023-06-30T01:21:00.867Z,100991.22
2023-06-30T01:24:11.303Z,100993.06
2023-06-30T01:27:13.812Z,100992.50
2023-06-30T01:30:16.331Z,100993.63
2023-06-30T01:33:18.030Z,100990.22
2023-06-30T01:36:19.629Z,100991.34
2023-06-30T01:39:21.202Z,100995.88
2023-06-30T01:42:23.473Z,100997.00
2023-06-30T01:45:26.848Z,100997.28
2023-06-30T01:48:29.018Z,101006.47
2023-06-30T01:51:30.643Z,101002.22
2023-06-30T01:54:32.417Z,101005.06
2023-06-30T01:57:34.026Z,100989.09
2023-06-30T02:00:35.588Z,100990.22
2023-06-30T02:03:37.339Z,100992.03
2023-06-30T02:06:39.869Z,100985.97
2023-06-30T02:09:47.837Z,100993.28
2023-06-30T02:12:49.898Z,100983.53
2023-06-30T02:15:51.497Z,100980.16
2023-06-30T02:18:56.024Z,100965.97
2023-06-30T02:21:57.712Z,100959.88
2023-06-30T02:24:59.488Z,100959.88
2023-06-30T02:28:01.102Z,100964.41
2023-06-30T02:31:02.792Z,100976.28
2023-06-30T02:34:04.466Z,100964.81
2023-06-30T02:37:06.203Z,100968.63
2023-06-30T02:40:09.665Z,100982.25
2023-06-30T02:43:11.361Z,100964.38
2023-06-30T02:46:13.007Z,100969.75
2023-06-30T02:49:14.878Z,100974.16
2023-06-30T02:52:16.445Z,100977.00
2023-06-30T02:55:18.119Z,100982.50
2023-06-30T02:58:19.782Z,100986.31
2023-06-30T03:01:22.777Z,100984.63
2023-06-30T03:04:24.465Z,100983.91
2023-06-30T03:07:26.089Z,100987.59
2023-06-30T03:10:27.690Z,100976.91
2023-06-30T03:13:29.287Z,100988.69
2023-06-30T03:16:30.958Z,100982.59
2023-06-30T03:19:32.592Z,100979.06
2023-06-30T03:22:34.133Z,100975.50
2023-06-30T03:25:35.982Z,100967.44
2023-06-30T03:28:37.537Z,100971.09
2023-06-30T03:31:39.148Z,100978.34
2023-06-30T03:34:40.713Z,100981.31
2023-06-30T03:37:42.271Z,100978.72
2023-06-30T03:40:43.854Z,100984.09
2023-06-30T03:43:45.586Z,100986.09
2023-06-30T03:46:47.184Z,100980.84
2023-06-30T03:49:48.766Z,100982.69
2023-06-30T03:52:50.364Z,100982.84
2023-06-30T03:55:51.950Z,100984.66
2023-06-30T03:58:53.506Z,100977.56
2023-06-30T04:01:55.177Z,100974.03
2023-06-30T04:04:56.835Z,100972.19
2023-06-30T04:07:58.519Z,100980.16
2023-06-30T04:11:00.130Z,100986.34
2023-06-30T04:14:01.791Z,100986.34
2023-06-30T04:17:03.700Z,100980.16
2023-06-30T04:20:10.659Z,100988.06
2023-06-30T04:23:12.578Z,100984.41
2023-06-30T04:26:18.182Z,100985.22
2023-06-30T04:29:19.762Z,100991.59
2023-06-30T04:32:21.389Z,100997.84
2023-06-30T04:35:26.371Z,101001.50
2023-06-30T04:38:28.780Z,100995.41
2023-06-30T04:41:30.449Z,101001.66
2023-06-30T04:44:32.048Z,101002.47
2023-06-30T04:47:33.732Z,100997.00
2023-06-30T04:50:36.578Z,100987.19
2023-06-30T04:53:40.210Z,100992.31
2023-06-30T04:56:41.805Z,100991.34
2023-06-30T04:59:43.357Z,100998.00
2023-06-30T05:02:44.971Z,100994.59
2023-06-30T05:05:46.749Z,100991.91
2023-06-30T05:08:48.634Z,100993.63
2023-06-30T05:11:50.971Z,100994.59
2023-06-30T05:14:53.261Z,100986.84
2023-06-30T05:17:54.946Z,100999.31
2023-06-30T05:20:56.584Z,100997.91
2023-06-30T05:23:58.193Z,100993.38
2023-06-30T05:27:00.270Z,100989.00
2023-06-30T05:30:01.924Z,100996.22
2023-06-30T05:33:03.615Z,100997.78
2023-06-30T05:36:05.581Z,100986.31
2023-06-30T05:39:07.190Z,100986.31
2023-06-30T05:42:08.987Z,100989.09
2023-06-30T05:45:10.984Z,100996.22
2023-06-30T05:48:12.597Z,100983.63
2023-06-30T05:51:14.200Z,100989.38
2023-06-30T05:54:16.068Z,100993.06
2023-06-30T05:57:17.702Z,101002.00
2023-06-30T06:00:19.624Z,100995.59
2023-06-30T06:03:21.832Z,100994.63
2023-06-30T06:06:23.913Z,101002.00
2023-06-30T06:09:25.505Z,100995.34
2023-06-30T06:12:27.099Z,101000.47
2023-06-30T06:15:28.676Z,101009.09
2023-06-30T06:18:30.312Z,101016.03
2023-06-30T06:21:31.946Z,101020.16
2023-06-30T06:24:33.778Z,101019.88
2023-06-30T06:27:36.692Z,101011.50
2023-06-30T06:30:38.273Z,101021.00
2023-06-30T06:33:39.863Z,101024.41
2023-06-30T06:36:41.567Z,101024.94
2023-06-30T06:39:43.221Z,101023.53
2023-06-30T06:42:44.858Z,101025.25
2023-06-30T06:45:47.703Z,101028.78
2023-06-30T06:48:49.564Z,101031.03
2023-06-30T06:51:51.323Z,101029.91
2023-06-30T06:54:53.083Z,101025.22
2023-06-30T06:57:55.047Z,101032.16
2023-06-30T07:00:57.420Z,101036.25
2023-06-30T07:03:59.096Z,101029.59
2023-06-30T07:07:00.807Z,101026.59
2023-06-30T07:10:02.838Z,101024.47
2023-06-30T07:13:04.724Z,101032.13
2023-06-30T07:16:07.044Z,101028.28
2023-06-30T07:22:10.169Z,101030.53
2023-06-30T07:25:11.758Z,101029.72
2023-06-30T07:28:13.835Z,101022.59
2023-06-30T07:31:15.487Z,101024.72
2023-06-30T07:34:20.223Z,101010.72
2023-06-30T07:37:21.818Z,101009.88
2023-06-30T07:40:24.509Z,101028.03
2023-06-30T07:43:26.271Z,101018.09
2023-06-30T07:46:28.043Z,101017.09
2023-06-30T07:49:29.801Z,101017.94
2023-06-30T07:52:31.824Z,101019.78
2023-06-30T07:55:33.988Z,101017.94
2023-06-30T07:58:35.668Z,101022.19
2023-06-30T08:01:37.238Z,101026.16
2023-06-30T08:04:42.740Z,101025.13
2023-06-30T08:07:50.071Z,101029.25
2023-06-30T08:10:52.774Z,101031.72
2023-06-30T08:13:54.324Z,101021.88
2023-06-30T08:16:55.991Z,101020.16
2023-06-30T08:20:00.125Z,101017.47
2023-06-30T08:23:02.562Z,101025.31
2023-06-30T08:26:04.263Z,101028.69
2023-06-30T08:29:05.862Z,101021.34
2023-06-30T08:32:08.232Z,101018.88
2023-06-30T08:35:09.953Z,101017.44
2023-06-30T08:38:11.534Z,101015.47
2023-06-30T08:41:15.373Z,101013.44
2023-06-30T08:44:19.326Z,101016.16
2023-06-30T08:47:25.403Z,101016.00
2023-06-30T08:50:27.281Z,101010.47
2023-06-30T08:53:31.421Z,101002.78
2023-06-30T08:56:34.797Z,101010.59
2023-06-30T08:59:36.358Z,101007.88
2023-06-30T09:02:39.675Z,101009.56
2023-06-30T09:05:42.697Z,101007.56
2023-06-30T09:08:47.359Z,101007.97
2023-06-30T09:11:50.243Z,101002.13
2023-06-30T09:14:54.095Z,101001.69
2023-06-30T09:17:56.081Z,101001.22
2023-06-30T09:20:57.932Z,101004.84
2023-06-30T09:24:00.324Z,101009.94
2023-06-30T09:27:02.028Z,101004.44
2023-06-30T09:30:03.925Z,101010.50
2023-06-30T09:33:06.801Z,101009.34
2023-06-30T09:36:08.588Z,101005.81
2023-06-30T09:39:10.226Z,101012.19
2023-06-30T09:42:17.242Z,101013.03
2023-06-30T09:45:18.815Z,101012.06
2023-06-30T09:48:20.454Z,101008.03
2023-06-30T09:51:22.812Z,101010.47
2023-06-30T09:54:39.469Z,101017.56
2023-06-30T09:57:47.203Z,101013.19
2023-06-30T10:00:51.623Z,101015.25
2023-06-30T10:03:57.659Z,101005.56
2023-06-30T10:07:00.216Z,101010.63
2023-06-30T10:10:04.087Z,101017.97
2023-06-30T10:13:06.477Z,101011.88
2023-06-30T10:16:09.080Z,101011.09
2023-06-30T10:19:11.351Z,101006.75
2023-06-30T10:22:13.671Z,101008.50
2023-06-30T10:25:18.443Z,101002.66
2023-06-30T10:28:20.450Z,101007.34
2023-06-30T10:31:23.281Z,100995.41
2023-06-30T10:34:25.731Z,100994.22
2023-06-30T10:37:27.756Z,101004.03
2023-06-30T10:40:30.999Z,101001.94
2023-06-30T10:44:01.605Z,100999.28
2023-06-30T10:47:03.485Z,100999.84
2023-06-30T10:50:15.244Z,100981.78
2023-06-30T10:53:19.966Z,100987.09
2023-06-30T10:56:23.463Z,100975.09
2023-06-30T10:59:25.164Z,100978.31
2023-06-30T11:02:32.028Z,100985.06
2023-06-30T11:05:34.811Z,100988.28
2023-06-30T11:08:37.932Z,100976.44
2023-06-30T11:11:50.268Z,100973.38
2023-06-30T11:15:00.075Z,100970.69
2023-06-30T11:18:07.028Z,100970.50
2023-06-30T11:21:09.078Z,100971.22
2023-06-30T11:24:17.004Z,100968.66
2023-06-30T11:27:20.297Z,100970.34
2023-06-30T11:30:23.200Z,100967.97
2023-06-30T11:33:25.840Z,100982.50
2023-06-30T11:36:31.337Z,100984.41
2023-06-30T11:39:33.001Z,100984.25
2023-06-30T11:42:40.066Z,100983.72
2023-06-30T11:45:41.800Z,100983.88
2023-06-30T11:48:43.608Z,100979.44
2023-06-30T11:51:46.898Z,100978.09
2023-06-30T11:54:48.758Z,100973.00
2023-06-30T11:57:51.357Z,100967.91
2023-06-30T12:00:53.020Z,100978.38
2023-06-30T12:04:23.463Z,100968.22
2023-06-30T12:07:25.295Z,100961.63
2023-06-30T12:10:40.708Z,100964.13
2023-06-30T12:13:43.282Z,100962.38
2023-06-30T12:16:50.063Z,100955.06
2023-06-30T12:19:51.972Z,100961.81
2023-06-30T12:22:54.855Z,100959.34
2023-06-30T12:25:58.098Z,100952.13
2023-06-30T12:29:04.435Z,100944.06
2023-06-30T12:32:15.407Z,100937.22
2023-06-30T12:35:29.065Z,100935.09
2023-06-30T12:38:30.639Z,100938.19
2023-06-30T12:41:32.712Z,100940.78
2023-06-30T12:44:34.346Z,100937.94
2023-06-30T12:47:36.360Z,100936.97
2023-06-30T12:50:38.065Z,100927.53
2023-06-30T12:53:39.718Z,100932.34
2023-06-30T12:56:41.315Z,100945.31
2023-06-30T12:59:44.724Z,100926.03
2023-06-30T13:02:46.544Z,100926.44
2023-06-30T13:05:48.165Z,100936.97
2023-06-30T13:08:49.729Z,100928.47
2023-06-30T13:11:51.409Z,100922.81
2023-06-30T13:14:54.846Z,100932.28
2023-06-30T13:17:56.803Z,100921.44
2023-06-30T13:20:58.543Z,100930.47
2023-06-30T13:24:00.161Z,100933.00
2023-06-30T13:27:01.754Z,100929.53
2023-06-30T13:30:03.982Z,100931.38
2023-06-30T13:33:07.281Z,100927.50
2023-06-30T13:36:11.753Z,100925.31
2023-06-30T13:39:13.432Z,100913.94
2023-06-30T13:42:15.182Z,100916.94
2023-06-30T13:45:17.315Z,100915.38
2023-06-30T13:48:20.406Z,100906.47
2023-06-30T13:51:22.424Z,100905.91
2023-06-30T13:54:25.066Z,100899.59
2023-06-30T13:57:27.399Z,100904.66
2023-06-30T14:00:30.540Z,100906.22
2023-06-30T14:03:32.180Z,100905.63
2023-06-30T14:06:33.974Z,100905.00
2023-06-30T14:09:35.554Z,100907.94
2023-06-30T14:12:37.208Z,100906.44
2023-06-30T14:15:38.836Z,100899.16
2023-06-30T14:18:40.548Z,100902.75
2023-06-30T14:21:42.789Z,100895.66
2023-06-30T14:24:44.643Z,100906.16
2023-06-30T14:27:46.235Z,100904.97
2023-06-30T14:30:47.844Z,100901.75
2023-06-30T14:33:49.525Z,100896.69
2023-06-30T14:36:51.575Z,100896.34
2023-06-30T14:39:53.159Z,100893.34
2023-06-30T14:42:54.781Z,100891.00
2023-06-30T14:45:56.474Z,100882.34
2023-06-30T14:48:58.191Z,100872.38
2023-06-30T14:51:59.749Z,100874.59
2023-06-30T14:55:01.361Z,100868.03
2023-06-30T14:58:03.289Z,100864.81
2023-06-30T15:01:04.847Z,100873.13
2023-06-30T15:04:06.534Z,100869.72
2023-06-30T15:07:08.503Z,100865.34
2023-06-30T15:10:10.581Z,100861.97
2023-06-30T15:13:12.301Z,100853.63
2023-06-30T15:16:13.968Z,100853.31
2023-06-30T15:19:15.635Z,100855.66
2023-06-30T15:22:17.312Z,100859.91
2023-06-30T15:25:29.641Z,100858.00
2023-06-30T15:28:31.295Z,100862.41
2023-06-30T15:31:32.900Z,100852.91
2023-06-30T15:34:34.518Z,100857.81
2023-06-30T15:37:36.232Z,100857.94
2023-06-30T15:40:38.096Z,100855.38
2023-06-30T15:43:39.880Z,100848.91
2023-06-30T15:46:41.618Z,100849.03
2023-06-30T15:49:43.418Z,100853.75
2023-06-30T15:52:44.996Z,100851.50
2023-06-30T15:55:48.177Z,100851.47
2023-06-30T15:58:49.950Z,100849.09
2023-06-30T16:01:51.565Z,100842.31
2023-06-30T16:04:53.227Z,100854.06
2023-06-30T16:07:54.880Z,100848.69
2023-06-30T16:10:56.521Z,100861.41
2023-06-30T16:13:58.165Z,100853.03
2023-06-30T16:16:59.731Z,100847.31
2023-06-30T16:20:01.357Z,100845.81
2023-06-30T16:23:02.961Z,100844.97
2023-06-30T16:26:04.547Z,100842.91
2023-06-30T16:29:06.150Z,100835.09
2023-06-30T16:32:08.656Z,100833.03
2023-06-30T16:35:10.211Z,100833.03
2023-06-30T16:38:11.871Z,100831.38
2023-06-30T16:41:14.734Z,100829.69
2023-06-30T16:44:16.690Z,100818.84
2023-06-30T16:47:18.348Z,100811.75
2023-06-30T16:50:20.086Z,100813.25
2023-06-30T16:53:24.060Z,100806.47
2023-06-30T16:56:26.857Z,100809.53
2023-06-30T16:59:28.534Z,100812.78
2023-06-30T17:02:30.336Z,100807.56
2023-06-30T17:05:32.064Z,100802.66
2023-06-30T17:08:33.787Z,100800.34
2023-06-30T17:11:35.349Z,100805.06
2023-06-30T17:14:36.999Z,100798.84
2023-06-30T17:17:38.869Z,100790.91
2023-06-30T17:20:40.691Z,100791.59
2023-06-30T17:23:42.259Z,100793.97
2023-06-30T17:26:44.099Z,100787.03
2023-06-30T17:29:46.461Z,100778.59
2023-06-30T17:32:48.111Z,100789.09
2023-06-30T17:35:49.716Z,100780.50
2023-06-30T17:38:51.330Z,100782.84
2023-06-30T17:41:52.893Z,100776.44
2023-06-30T17:44:54.570Z,100774.25
2023-06-30T17:47:56.268Z,100777.09
2023-06-30T17:50:58.484Z,100771.00
2023-06-30T17:54:00.585Z,100772.03
2023-06-30T17:57:02.274Z,100774.91
2023-06-30T18:00:05.327Z,100767.28
2023-06-30T18:03:06.982Z,100775.06
2023-06-30T18:06:08.577Z,100768.47
2023-06-30T18:09:10.150Z,100765.22
2023-06-30T18:12:12.369Z,100760.78
2023-06-30T18:15:14.182Z,100762.47
2023-06-30T18:18:15.829Z,100755.88
2023-06-30T18:21:17.499Z,100761.44
2023-06-30T18:24:19.986Z,100759.94
2023-06-30T18:27:21.601Z,100759.13
2023-06-30T18:30:23.200Z,100751.19
2023-06-30T18:33:24.800Z,100745.13
2023-06-30T18:36:27.177Z,100745.00
2023-06-30T18:39:29.087Z,100741.94
2023-06-30T18:42:30.770Z,100747.34
2023-06-30T18:45:32.529Z,100746.16
2023-06-30T18:48:35.459Z,100741.09
2023-06-30T18:51:37.103Z,100743.31
2023-06-30T18:54:38.727Z,100748.00
2023-06-30T18:57:40.498Z,100737.56
2023-06-30T19:00:42.159Z,100740.41
2023-06-30T19:03:45.857Z,100727.06
2023-06-30T19:06:48.761Z,100728.44
2023-06-30T19:09:50.499Z,100732.75
2023-06-30T19:12:52.132Z,100730.91
2023-06-30T19:15:53.825Z,100736.66
2023-06-30T19:18:55.805Z,100727.19
2023-06-30T19:21:57.499Z,100730.06
2023-06-30T19:24:59.848Z,100733.09
2023-06-30T19:28:01.503Z,100734.94
2023-06-30T19:31:03.421Z,100732.59
2023-06-30T19:34:05.194Z,100731.22
2023-06-30T19:37:07.088Z,100730.00
2023-06-30T19:40:09.050Z,100718.19
2023-06-30T19:43:10.665Z,100728.50
2023-06-30T19:46:12.257Z,100722.75
2023-06-30T19:49:13.834Z,100724.09
2023-06-30T19:52:15.483Z,100724.41
2023-06-30T19:55:19.685Z,100721.00
2023-06-30T19:58:21.308Z,100728.81
2023-06-30T20:01:26.803Z,100716.31
2023-06-30T20:04:28.957Z,100716.25
2023-06-30T20:07:30.640Z,100711.69
2023-06-30T20:10:32.241Z,100711.81
2023-06-30T20:13:33.960Z,100714.47
2023-06-30T20:16:35.578Z,100706.47
2023-06-30T20:19:39.562Z,100703.03
2023-06-30T20:22:41.971Z,100700.78
2023-06-30T20:25:43.570Z,100697.72
2023-06-30T20:28:45.423Z,100688.44
2023-06-30T20:31:47.047Z,100681.13
2023-06-30T20:34:48.707Z,100683.47
2023-06-30T20:37:50.297Z,100684.63
2023-06-30T20:40:51.933Z,100684.94
2023-06-30T20:43:53.554Z,100694.69
2023-06-30T20:46:55.260Z,100691.88
2023-06-30T20:49:57.011Z,100685.81
2023-06-30T20:52:58.615Z,100688.75
2023-06-30T20:56:00.180Z,100682.69
2023-06-30T20:59:01.908Z,100679.69
2023-06-30T21:02:03.796Z,100683.41
2023-06-30T21:05:05.880Z,100664.66
2023-06-30T21:08:07.587Z,100661.28
2023-06-30T21:11:09.332Z,100657.06
2023-06-30T21:14:10.961Z,100656.88
2023-06-30T21:17:12.568Z,100657.69
2023-06-30T21:20:14.180Z,100655.69
2023-06-30T21:23:15.889Z,100647.44
2023-06-30T21:26:17.553Z,100656.22
2023-06-30T21:29:19.115Z,100644.44
2023-06-30T21:32:22.468Z,100639.34
2023-06-30T21:35:24.046Z,100642.66
2023-06-30T21:38:25.631Z,100634.38
2023-06-30T21:41:27.249Z,100631.97
2023-06-30T21:44:29.713Z,100629.34
2023-06-30T21:47:31.341Z,100629.34
2023-06-30T21:50:32.974Z,100625.50
2023-06-30T21:53:34.750Z,100615.25
2023-06-30T21:56:36.343Z,100619.47
2023-06-30T21:59:37.922Z,100606.53
2023-06-30T22:02:42.958Z,100601.16
2023-06-30T22:05:44.652Z,100604.16
2023-06-30T22:08:46.683Z,100588.59
2023-06-30T22:11:48.314Z,100594.31
2023-06-30T22:14:49.949Z,100584.53
2023-06-30T22:17:52.591Z,100581.66
2023-06-30T22:20:54.243Z,100576.75
2023-06-30T22:23:56.141Z,100573.53
2023-06-30T22:26:59.354Z,100570.31
2023-06-30T22:30:01.036Z,100566.41
2023-06-30T22:33:03.941Z,100557.28
2023-06-30T22:36:05.855Z,100562.13
2023-06-30T22:39:07.453Z,100551.97
2023-06-30T22:42:09.157Z,100557.84
2023-06-30T22:45:11.805Z,100553.78
2023-06-30T22:48:13.708Z,100551.41
2023-06-30T22:51:16.294Z,100547.34
2023-06-30T22:54:17.977Z,100549.34
2023-06-30T22:57:19.557Z,100544.25
2023-06-30T23:00:21.506Z,100545.72
2023-06-30T23:03:23.765Z,100541.97
2023-06-30T23:06:25.398Z,100535.53
2023-06-30T23:09:27.045Z,100534.28
2023-06-30T23:12:28.633Z,100524.97
2023-06-30T23:15:30.201Z,100526.31
2023-06-30T23:18:38.931Z,100518.22
2023-06-30T23:21:40.821Z,100519.91
2023-06-30T23:24:47.771Z,100517.06
2023-06-30T23:27:55.277Z,100516.75
2023-06-30T23:30:57.105Z,100511.22
2023-06-30T23:34:03.422Z,100509.50
2023-06-30T23:37:05.742Z,100500.59
2023-06-30T23:40:08.014Z,100503.13
2023-06-30T23:43:10.064Z,100501.59
2023-06-30T23:46:19.400Z,100496.22
2023-06-30T23:49:21.478Z,100489.28
2023-06-30T23:52:25.117Z,100494.84
2023-06-30T23:55:26.762Z,100484.38
2023-06-30T23:58:28.349Z,100473.91
